createdAt,value
2019-03-29T00:00:06.139Z,312.72
2019-03-29T00:01:05.794Z,312.39
2019-03-29T00:02:05.776Z,312.25
2019-03-29T00:03:05.764Z,312.26
2019-03-29T00:04:05.749Z,312.19
2019-03-29T00:05:05.770Z,312.56
2019-03-29T00:06:05.768Z,312.37
2019-03-29T00:07:05.728Z,313.00
2019-03-29T00:08:05.718Z,312.50
2019-03-29T00:09:05.697Z,312.62
2019-03-29T00:10:05.710Z,312.94
2019-03-29T00:11:05.689Z,313.16
2019-03-29T00:12:05.690Z,313.02
2019-03-29T00:13:05.665Z,312.89
2019-03-29T00:14:05.647Z,313.17
2019-03-29T00:15:05.700Z,313.06
2019-03-29T00:16:05.624Z,313.03
2019-03-29T00:17:05.613Z,312.43
2019-03-29T00:18:05.620Z,313.05
2019-03-29T00:19:05.599Z,312.81
2019-03-29T00:20:06.317Z,312.95
2019-03-29T00:21:05.599Z,312.84
2019-03-29T00:22:05.559Z,312.46
2019-03-29T00:23:05.556Z,313.33
2019-03-29T00:24:06.882Z,313.41
2019-03-29T00:25:06.377Z,312.76
2019-03-29T00:26:05.542Z,312.81
2019-03-29T00:27:05.511Z,313.29
2019-03-29T00:28:05.493Z,312.93
2019-03-29T00:29:05.478Z,313.31
2019-03-29T00:30:05.470Z,313.24
2019-03-29T00:31:05.467Z,312.56
2019-03-29T00:32:06.109Z,312.92
2019-03-29T00:33:05.440Z,313.08
2019-03-29T00:34:05.429Z,313.10
2019-03-29T00:35:05.424Z,312.60
2019-03-29T00:36:05.398Z,312.81
2019-03-29T00:37:05.419Z,312.23
2019-03-29T00:38:05.408Z,312.35
2019-03-29T00:39:05.376Z,312.45
2019-03-29T00:40:05.361Z,312.16
2019-03-29T00:41:05.351Z,312.36
2019-03-29T00:42:05.376Z,312.30
2019-03-29T00:43:05.331Z,312.21
2019-03-29T00:44:05.318Z,311.90
2019-03-29T00:45:05.322Z,312.01
2019-03-29T00:46:05.295Z,312.29
2019-03-29T00:47:05.277Z,312.10
2019-03-29T00:48:05.309Z,312.11
2019-03-29T00:49:05.271Z,312.41
2019-03-29T00:50:05.335Z,311.86
2019-03-29T00:51:05.251Z,311.80
2019-03-29T00:52:05.261Z,312.33
2019-03-29T00:53:05.219Z,311.99
2019-03-29T00:54:05.214Z,311.89
2019-03-29T00:55:05.223Z,312.65
2019-03-29T00:56:05.185Z,312.54
2019-03-29T00:57:05.249Z,311.94
2019-03-29T00:58:05.182Z,311.97
2019-03-29T00:59:05.147Z,311.98
2019-03-29T01:00:05.244Z,312.06
2019-03-29T01:01:05.171Z,312.07
2019-03-29T01:02:05.108Z,311.94
2019-03-29T01:03:05.115Z,312.32
2019-03-29T01:04:05.106Z,312.30
2019-03-29T01:05:05.103Z,312.61
2019-03-29T01:06:05.104Z,311.58
2019-03-29T01:07:05.231Z,312.66
2019-03-29T01:08:08.224Z,312.12
2019-03-29T01:09:06.090Z,311.79
2019-03-29T01:10:05.035Z,311.77
2019-03-29T01:11:05.017Z,312.03
2019-03-29T01:12:05.032Z,311.96
2019-03-29T01:13:04.997Z,311.74
2019-03-29T01:14:05.003Z,311.98
2019-03-29T01:15:04.998Z,312.38
2019-03-29T01:16:04.976Z,312.80
2019-03-29T01:17:04.969Z,312.58
2019-03-29T01:18:04.949Z,312.92
2019-03-29T01:19:04.960Z,312.65
2019-03-29T01:20:04.920Z,312.63
2019-03-29T01:21:04.937Z,312.54
2019-03-29T01:22:05.271Z,312.97
2019-03-29T01:23:04.897Z,312.30
2019-03-29T01:24:04.888Z,311.91
2019-03-29T01:25:04.862Z,312.67
2019-03-29T01:26:04.900Z,311.89
2019-03-29T01:27:04.858Z,311.79
2019-03-29T01:28:04.832Z,311.95
2019-03-29T01:29:04.963Z,312.69
2019-03-29T01:30:04.812Z,312.32
2019-03-29T01:31:04.793Z,312.86
2019-03-29T01:32:04.797Z,312.51
2019-03-29T01:33:04.774Z,312.92
2019-03-29T01:34:04.759Z,312.78
2019-03-29T01:35:04.759Z,312.94
2019-03-29T01:36:04.791Z,312.68
2019-03-29T01:37:04.754Z,312.65
2019-03-29T01:38:04.709Z,312.41
2019-03-29T01:39:04.714Z,312.83
2019-03-29T01:40:04.701Z,312.80
2019-03-29T01:41:04.704Z,312.83
2019-03-29T01:42:04.794Z,312.76
2019-03-29T01:43:04.663Z,312.95
2019-03-29T01:44:04.663Z,312.99
2019-03-29T01:45:04.641Z,313.01
2019-03-29T01:46:04.619Z,312.63
2019-03-29T01:47:04.657Z,313.26
2019-03-29T01:48:04.607Z,312.68
2019-03-29T01:49:04.604Z,312.00
2019-03-29T01:50:04.592Z,311.98
2019-03-29T01:51:04.570Z,312.51
2019-03-29T01:52:04.564Z,312.14
2019-03-29T01:53:04.585Z,312.55
2019-03-29T01:54:04.544Z,312.05
2019-03-29T01:55:04.530Z,312.20
2019-03-29T01:56:04.512Z,312.33
2019-03-29T01:57:04.505Z,312.27
2019-03-29T01:58:04.536Z,312.48
2019-03-29T01:59:04.493Z,312.72
2019-03-29T02:00:04.490Z,312.06
2019-03-29T02:01:04.469Z,312.40
2019-03-29T02:02:04.463Z,312.19
2019-03-29T02:03:04.452Z,312.73
2019-03-29T02:04:05.980Z,312.65
2019-03-29T02:05:04.413Z,312.33
2019-03-29T02:06:04.415Z,312.46
2019-03-29T02:07:04.403Z,312.41
2019-03-29T02:08:05.105Z,312.74
2019-03-29T02:09:05.087Z,312.41
2019-03-29T02:10:04.409Z,312.26
2019-03-29T02:11:04.368Z,312.42
2019-03-29T02:12:04.346Z,312.30
2019-03-29T02:13:04.365Z,312.33
2019-03-29T02:14:04.327Z,312.48
2019-03-29T02:15:04.341Z,312.09
2019-03-29T02:16:04.302Z,312.11
2019-03-29T02:17:04.284Z,312.46
2019-03-29T02:18:04.273Z,312.66
2019-03-29T02:19:04.273Z,312.32
2019-03-29T02:20:04.260Z,312.28
2019-03-29T02:21:04.265Z,312.38
2019-03-29T02:22:04.253Z,312.20
2019-03-29T02:23:04.391Z,312.59
2019-03-29T02:24:04.208Z,312.50
2019-03-29T02:25:04.208Z,312.73
2019-03-29T02:26:04.227Z,312.62
2019-03-29T02:27:04.175Z,312.50
2019-03-29T02:28:04.160Z,312.58
2019-03-29T02:29:04.151Z,312.49
2019-03-29T02:30:04.596Z,312.65
2019-03-29T02:31:04.140Z,312.35
2019-03-29T02:32:04.168Z,312.46
2019-03-29T02:33:04.146Z,312.54
2019-03-29T02:34:04.115Z,312.70
2019-03-29T02:35:04.083Z,312.45
2019-03-29T02:36:04.084Z,312.58
2019-03-29T02:37:04.097Z,312.48
2019-03-29T02:38:04.052Z,312.86
2019-03-29T02:39:04.050Z,312.62
2019-03-29T02:40:04.047Z,312.43
2019-03-29T02:41:04.023Z,313.16
2019-03-29T02:42:04.006Z,313.11
2019-03-29T02:43:04.016Z,313.37
2019-03-29T02:44:03.995Z,313.68
2019-03-29T02:45:03.995Z,313.42
2019-03-29T02:46:04.010Z,313.19
2019-03-29T02:47:03.959Z,313.57
2019-03-29T02:48:03.963Z,313.00
2019-03-29T02:49:03.959Z,312.80
2019-03-29T02:50:03.927Z,312.12
2019-03-29T02:51:04.885Z,312.61
2019-03-29T02:52:03.905Z,312.31
2019-03-29T02:53:04.128Z,312.92
2019-03-29T02:54:03.904Z,312.24
2019-03-29T02:55:03.881Z,312.77
2019-03-29T02:56:03.891Z,312.73
2019-03-29T02:57:03.858Z,313.02
2019-03-29T02:58:03.839Z,313.08
2019-03-29T02:59:03.831Z,312.48
2019-03-29T03:00:03.811Z,312.34
2019-03-29T03:01:03.819Z,312.56
2019-03-29T03:02:03.811Z,312.58
2019-03-29T03:03:03.776Z,312.30
2019-03-29T03:04:03.797Z,312.03
2019-03-29T03:05:03.758Z,312.70
2019-03-29T03:06:03.778Z,312.02
2019-03-29T03:07:03.801Z,312.44
2019-03-29T03:08:03.721Z,312.66
2019-03-29T03:09:12.951Z,312.80
2019-03-29T03:10:04.712Z,312.54
2019-03-29T03:11:03.697Z,312.73
2019-03-29T03:12:03.763Z,312.33
2019-03-29T03:13:03.659Z,312.65
2019-03-29T03:14:03.649Z,312.88
2019-03-29T03:15:03.658Z,312.39
2019-03-29T03:16:03.647Z,312.35
2019-03-29T03:17:03.635Z,312.12
2019-03-29T03:18:03.652Z,312.62
2019-03-29T03:19:03.594Z,312.52
2019-03-29T03:20:03.580Z,312.51
2019-03-29T03:21:03.586Z,312.50
2019-03-29T03:22:03.586Z,312.66
2019-03-29T03:23:03.578Z,312.84
2019-03-29T03:24:03.569Z,312.95
2019-03-29T03:25:03.549Z,312.10
2019-03-29T03:26:03.526Z,312.74
2019-03-29T03:27:03.506Z,312.08
2019-03-29T03:28:03.568Z,312.02
2019-03-29T03:29:03.530Z,312.24
2019-03-29T03:30:03.480Z,312.50
2019-03-29T03:31:03.467Z,311.55
2019-03-29T03:32:03.505Z,311.10
2019-03-29T03:33:03.454Z,311.58
2019-03-29T03:34:03.475Z,312.00
2019-03-29T03:35:03.480Z,311.80
2019-03-29T03:36:03.420Z,312.11
2019-03-29T03:37:03.445Z,312.15
2019-03-29T03:38:03.436Z,312.44
2019-03-29T03:39:03.382Z,312.80
2019-03-29T03:40:03.365Z,312.11
2019-03-29T03:41:03.355Z,311.95
2019-03-29T03:42:03.375Z,311.96
2019-03-29T03:43:03.338Z,311.61
2019-03-29T03:44:03.330Z,311.52
2019-03-29T03:45:03.325Z,311.74
2019-03-29T03:46:03.305Z,312.30
2019-03-29T03:47:03.294Z,311.66
2019-03-29T03:48:03.320Z,312.58
2019-03-29T03:49:03.275Z,312.68
2019-03-29T03:50:03.272Z,313.18
2019-03-29T03:51:03.241Z,313.09
2019-03-29T03:52:03.222Z,312.81
2019-03-29T03:53:03.219Z,312.11
2019-03-29T03:54:03.236Z,311.86
2019-03-29T03:55:03.207Z,311.90
2019-03-29T03:56:03.189Z,312.26
2019-03-29T03:57:03.189Z,311.85
2019-03-29T03:58:03.217Z,312.28
2019-03-29T03:59:03.169Z,312.42
2019-03-29T04:00:03.152Z,312.54
2019-03-29T04:01:03.164Z,313.26
2019-03-29T04:02:03.243Z,313.13
2019-03-29T04:03:03.124Z,313.44
2019-03-29T04:04:03.110Z,313.46
2019-03-29T04:05:03.087Z,312.92
2019-03-29T04:06:03.095Z,312.73
2019-03-29T04:07:03.081Z,312.80
2019-03-29T04:08:03.052Z,312.59
2019-03-29T04:09:03.087Z,312.72
2019-03-29T04:10:03.046Z,312.28
2019-03-29T04:11:03.093Z,312.25
2019-03-29T04:12:03.006Z,312.40
2019-03-29T04:13:02.999Z,312.98
2019-03-29T04:14:03.037Z,312.23
2019-03-29T04:15:02.998Z,312.67
2019-03-29T04:16:02.967Z,313.25
2019-03-29T04:17:02.977Z,312.78
2019-03-29T04:18:02.937Z,312.97
2019-03-29T04:19:03.067Z,312.67
2019-03-29T04:20:02.949Z,313.07
2019-03-29T04:21:02.938Z,313.25
2019-03-29T04:22:02.911Z,313.80
2019-03-29T04:23:02.907Z,312.78
2019-03-29T04:24:02.886Z,312.05
2019-03-29T04:25:02.880Z,312.52
2019-03-29T04:26:02.855Z,313.35
2019-03-29T04:27:02.851Z,313.65
2019-03-29T04:28:02.833Z,313.17
2019-03-29T04:29:04.554Z,313.40
2019-03-29T04:30:02.849Z,313.06
2019-03-29T04:31:02.796Z,313.36
2019-03-29T04:32:02.784Z,313.71
2019-03-29T04:33:02.805Z,313.72
2019-03-29T04:34:02.795Z,312.35
2019-03-29T04:35:02.788Z,312.52
2019-03-29T04:36:02.773Z,312.64
2019-03-29T04:37:02.759Z,312.54
2019-03-29T04:38:02.723Z,311.61
2019-03-29T04:39:02.718Z,311.99
2019-03-29T04:40:07.771Z,311.77
2019-03-29T04:41:03.704Z,312.37
2019-03-29T04:42:02.684Z,312.32
2019-03-29T04:43:02.677Z,312.23
2019-03-29T04:44:02.689Z,312.65
2019-03-29T04:45:02.649Z,312.20
2019-03-29T04:46:02.653Z,312.19
2019-03-29T04:47:02.656Z,312.67
2019-03-29T04:48:02.625Z,312.42
2019-03-29T04:49:02.603Z,312.70
2019-03-29T04:50:02.590Z,312.60
2019-03-29T04:51:02.609Z,312.64
2019-03-29T04:52:02.571Z,312.77
2019-03-29T04:53:02.560Z,312.90
2019-03-29T04:54:02.547Z,313.62
2019-03-29T04:55:02.529Z,312.79
2019-03-29T04:56:02.544Z,313.50
2019-03-29T04:57:02.520Z,313.45
2019-03-29T04:58:02.496Z,313.11
2019-03-29T04:59:02.489Z,313.08
2019-03-29T05:00:02.491Z,313.37
2019-03-29T05:01:02.502Z,313.46
2019-03-29T05:02:02.461Z,313.20
2019-03-29T05:03:02.489Z,313.18
2019-03-29T05:04:02.432Z,313.01
2019-03-29T05:05:02.436Z,313.13
2019-03-29T05:06:02.446Z,313.39
2019-03-29T05:07:02.394Z,313.10
2019-03-29T05:08:02.393Z,313.49
2019-03-29T05:09:02.372Z,313.11
2019-03-29T05:10:02.396Z,313.71
2019-03-29T05:11:02.363Z,313.32
2019-03-29T05:12:02.388Z,313.64
2019-03-29T05:13:02.344Z,313.37
2019-03-29T05:14:02.328Z,314.18
2019-03-29T05:15:02.393Z,313.82
2019-03-29T05:16:02.293Z,314.50
2019-03-29T05:17:02.349Z,314.12
2019-03-29T05:18:02.297Z,314.70
2019-03-29T05:19:02.277Z,314.95
2019-03-29T05:20:02.262Z,314.76
2019-03-29T05:21:02.239Z,314.55
2019-03-29T05:22:02.276Z,315.20
2019-03-29T05:23:02.276Z,314.96
2019-03-29T05:24:02.307Z,314.67
2019-03-29T05:25:02.207Z,315.25
2019-03-29T05:26:02.219Z,315.04
2019-03-29T05:27:02.173Z,314.98
2019-03-29T05:28:02.179Z,314.68
2019-03-29T05:29:02.153Z,314.20
2019-03-29T05:30:02.143Z,314.95
2019-03-29T05:31:02.144Z,315.31
2019-03-29T05:32:02.153Z,315.17
2019-03-29T05:33:02.159Z,314.74
2019-03-29T05:34:02.123Z,315.24
2019-03-29T05:35:02.094Z,315.81
2019-03-29T05:36:02.075Z,316.51
2019-03-29T05:37:02.075Z,315.19
2019-03-29T05:38:02.079Z,315.56
2019-03-29T05:39:02.132Z,315.19
2019-03-29T05:40:02.030Z,315.54
2019-03-29T05:41:02.036Z,315.45
2019-03-29T05:42:02.006Z,315.23
2019-03-29T05:43:02.057Z,315.49
2019-03-29T05:44:02.001Z,315.25
2019-03-29T05:45:01.986Z,315.05
2019-03-29T05:46:01.991Z,315.66
2019-03-29T05:47:01.956Z,315.66
2019-03-29T05:48:01.981Z,314.90
2019-03-29T05:49:01.958Z,315.33
2019-03-29T05:50:01.924Z,316.19
2019-03-29T05:51:01.913Z,315.36
2019-03-29T05:52:01.918Z,317.66
2019-03-29T05:53:01.899Z,326.34
2019-03-29T05:54:01.903Z,320.58
2019-03-29T05:55:01.872Z,317.55
2019-03-29T05:56:01.973Z,319.13
2019-03-29T05:57:01.878Z,316.46
2019-03-29T05:58:01.838Z,315.52
2019-03-29T05:59:01.817Z,314.78
2019-03-29T06:00:01.829Z,314.59
2019-03-29T06:01:01.796Z,314.46
2019-03-29T06:02:01.804Z,315.33
2019-03-29T06:03:01.785Z,315.56
2019-03-29T06:04:01.930Z,314.37
2019-03-29T06:05:02.006Z,314.76
2019-03-29T06:06:01.779Z,314.45
2019-03-29T06:07:01.732Z,315.29
2019-03-29T06:08:01.757Z,314.72
2019-03-29T06:09:01.722Z,314.90
2019-03-29T06:10:01.738Z,314.44
2019-03-29T06:11:01.689Z,314.31
2019-03-29T06:12:01.689Z,314.89
2019-03-29T06:13:01.678Z,314.36
2019-03-29T06:14:01.659Z,314.99
2019-03-29T06:15:01.707Z,315.04
2019-03-29T06:16:01.646Z,314.81
2019-03-29T06:17:01.629Z,314.37
2019-03-29T06:18:01.626Z,314.50
2019-03-29T06:19:01.620Z,314.59
2019-03-29T06:20:01.588Z,314.85
2019-03-29T06:21:01.589Z,314.40
2019-03-29T06:22:01.593Z,314.78
2019-03-29T06:23:01.563Z,315.43
2019-03-29T06:24:01.547Z,314.64
2019-03-29T06:25:01.535Z,315.15
2019-03-29T06:26:01.575Z,315.49
2019-03-29T06:27:01.531Z,314.89
2019-03-29T06:28:01.516Z,314.57
2019-03-29T06:29:01.495Z,314.67
2019-03-29T06:30:01.506Z,314.19
2019-03-29T06:31:01.466Z,314.76
2019-03-29T06:32:01.496Z,314.21
2019-03-29T06:33:01.471Z,314.72
2019-03-29T06:34:01.438Z,314.71
2019-03-29T06:35:01.432Z,314.55
2019-03-29T06:36:01.421Z,314.54
2019-03-29T06:37:01.433Z,314.49
2019-03-29T06:38:01.395Z,314.88
2019-03-29T06:39:01.377Z,315.27
2019-03-29T06:40:01.368Z,315.23
2019-03-29T06:41:03.386Z,316.17
2019-03-29T06:42:01.389Z,316.29
2019-03-29T06:43:01.336Z,317.05
2019-03-29T06:44:01.315Z,317.11
2019-03-29T06:45:01.327Z,316.70
2019-03-29T06:46:01.298Z,315.26
2019-03-29T06:47:01.343Z,315.26
2019-03-29T06:48:01.295Z,315.00
2019-03-29T06:49:01.287Z,315.19
2019-03-29T06:50:01.269Z,314.97
2019-03-29T06:51:01.251Z,314.73
2019-03-29T06:52:01.285Z,314.80
2019-03-29T06:53:01.227Z,315.26
2019-03-29T06:54:01.208Z,315.78
2019-03-29T06:55:01.244Z,315.85
2019-03-29T06:56:01.271Z,315.99
2019-03-29T06:57:01.209Z,316.83
2019-03-29T06:58:01.180Z,316.93
2019-03-29T06:59:01.168Z,316.34
2019-03-29T07:00:01.169Z,317.52
2019-03-29T07:01:01.144Z,317.02
2019-03-29T07:02:01.162Z,316.68
2019-03-29T07:03:01.122Z,315.78
2019-03-29T07:04:01.098Z,315.63
2019-03-29T07:05:01.116Z,316.06
2019-03-29T07:06:01.079Z,315.48
2019-03-29T07:07:01.126Z,315.42
2019-03-29T07:08:01.085Z,315.35
2019-03-29T07:09:01.064Z,315.37
2019-03-29T07:10:01.041Z,315.10
2019-03-29T07:11:01.033Z,315.99
2019-03-29T07:12:01.019Z,315.25
2019-03-29T07:13:01.038Z,315.22
2019-03-29T07:14:01.007Z,314.84
2019-03-29T07:15:00.980Z,314.95
2019-03-29T07:16:00.964Z,315.04
2019-03-29T07:17:01.097Z,315.50
2019-03-29T07:18:00.969Z,316.22
2019-03-29T07:19:00.948Z,315.54
2019-03-29T07:20:00.930Z,315.70
2019-03-29T07:21:00.929Z,315.31
2019-03-29T07:22:00.912Z,315.40
2019-03-29T07:23:00.912Z,315.25
2019-03-29T07:24:00.888Z,315.75
2019-03-29T07:25:00.883Z,315.58
2019-03-29T07:26:00.860Z,316.11
2019-03-29T07:27:00.859Z,320.02
2019-03-29T07:28:00.868Z,315.50
2019-03-29T07:29:00.846Z,315.56
2019-03-29T07:30:00.813Z,315.54
2019-03-29T07:31:00.836Z,315.72
2019-03-29T07:32:00.807Z,315.46
2019-03-29T07:33:00.797Z,315.07
2019-03-29T07:34:00.812Z,314.95
2019-03-29T07:35:00.764Z,315.55
2019-03-29T07:36:00.748Z,315.19
2019-03-29T07:37:00.735Z,315.42
2019-03-29T07:38:00.729Z,315.78
2019-03-29T07:39:00.733Z,315.66
2019-03-29T07:40:00.735Z,314.78
2019-03-29T07:41:00.727Z,315.09
2019-03-29T07:42:00.689Z,316.26
2019-03-29T07:43:00.700Z,315.22
2019-03-29T07:44:00.659Z,316.59
2019-03-29T07:45:00.685Z,315.66
2019-03-29T07:46:00.653Z,315.66
2019-03-29T07:47:00.625Z,315.26
2019-03-29T07:48:00.610Z,315.24
2019-03-29T07:49:00.632Z,316.00
2019-03-29T07:50:00.604Z,314.83
2019-03-29T07:51:00.596Z,315.19
2019-03-29T07:52:00.576Z,314.53
2019-03-29T07:53:00.582Z,314.86
2019-03-29T07:54:00.560Z,314.80
2019-03-29T07:55:00.555Z,313.86
2019-03-29T07:56:00.529Z,314.76
2019-03-29T07:57:00.533Z,314.86
2019-03-29T07:58:00.502Z,314.39
2019-03-29T07:59:00.509Z,315.74
2019-03-29T08:00:00.490Z,315.53
2019-03-29T08:01:00.498Z,314.51
2019-03-29T08:02:00.487Z,314.09
2019-03-29T08:03:00.479Z,314.15
2019-03-29T08:04:00.464Z,315.33
2019-03-29T08:05:00.564Z,314.98
2019-03-29T08:06:00.445Z,314.04
2019-03-29T08:07:00.451Z,314.88
2019-03-29T08:08:00.410Z,315.94
2019-03-29T08:09:01.062Z,315.67
2019-03-29T08:10:03.367Z,316.12
2019-03-29T08:11:00.386Z,314.93
2019-03-29T08:12:00.355Z,315.67
2019-03-29T08:13:00.358Z,315.41
2019-03-29T08:14:00.327Z,314.83
2019-03-29T08:15:00.352Z,316.02
2019-03-29T08:16:00.305Z,315.00
2019-03-29T08:17:00.316Z,314.98
2019-03-29T08:18:01.772Z,313.78
2019-03-29T08:19:00.279Z,313.77
2019-03-29T08:20:35.820Z,313.27
2019-03-29T08:21:01.249Z,313.89
2019-03-29T08:22:00.241Z,313.23
2019-03-29T08:23:00.272Z,313.80
2019-03-29T08:24:00.269Z,314.20
2019-03-29T08:25:00.288Z,313.83
2019-03-29T08:26:00.204Z,314.53
2019-03-29T08:27:00.205Z,314.37
2019-03-29T08:28:00.184Z,313.93
2019-03-29T08:29:00.156Z,314.61
2019-03-29T08:30:00.366Z,314.76
2019-03-29T08:31:00.145Z,314.58
2019-03-29T08:32:00.151Z,313.65
2019-03-29T08:33:00.146Z,315.90
2019-03-29T08:34:00.125Z,316.02
2019-03-29T08:35:00.306Z,316.50
2019-03-29T08:36:00.101Z,314.51
2019-03-29T08:37:00.081Z,313.59
2019-03-29T08:38:00.087Z,313.71
2019-03-29T08:39:00.068Z,314.49
2019-03-29T08:40:00.144Z,314.55
2019-03-29T08:41:00.027Z,314.19
2019-03-29T08:42:00.810Z,315.63
2019-03-29T08:43:00.018Z,315.72
2019-03-29T08:44:00.029Z,316.07
2019-03-29T08:44:59.990Z,314.39
2019-03-29T08:45:59.980Z,314.00
2019-03-29T08:46:59.958Z,316.09
2019-03-29T08:48:02.264Z,315.40
2019-03-29T08:48:59.955Z,314.07
2019-03-29T08:49:59.976Z,313.95
2019-03-29T08:50:59.923Z,313.77
2019-03-29T08:51:59.915Z,314.40
2019-03-29T08:52:59.896Z,314.60
2019-03-29T08:53:59.913Z,315.85
2019-03-29T08:54:59.896Z,315.21
2019-03-29T08:55:59.872Z,315.05
2019-03-29T08:56:59.867Z,313.62
2019-03-29T08:57:59.855Z,313.85
2019-03-29T08:58:59.867Z,314.06
2019-03-29T08:59:59.824Z,313.71
2019-03-29T09:00:59.825Z,314.25
2019-03-29T09:01:59.797Z,315.35
2019-03-29T09:02:59.877Z,315.15
2019-03-29T09:04:05.078Z,315.99
2019-03-29T09:05:00.788Z,315.76
2019-03-29T09:05:59.758Z,315.90
2019-03-29T09:06:59.747Z,315.08
2019-03-29T09:07:59.745Z,315.05
2019-03-29T09:08:59.726Z,314.77
2019-03-29T09:09:59.742Z,314.25
2019-03-29T09:10:59.706Z,314.29
2019-03-29T09:12:13.415Z,314.29
2019-03-29T09:13:04.080Z,314.02
2019-03-29T09:13:59.662Z,313.66
2019-03-29T09:15:03.274Z,311.98
2019-03-29T09:15:59.695Z,312.57
2019-03-29T09:16:59.648Z,313.17
2019-03-29T09:18:00.095Z,312.29
2019-03-29T09:18:59.614Z,313.81
2019-03-29T09:19:59.606Z,313.03
2019-03-29T09:20:59.633Z,312.80
2019-03-29T09:21:59.589Z,312.29
2019-03-29T09:22:59.574Z,312.38
2019-03-29T09:23:59.554Z,313.05
2019-03-29T09:24:59.611Z,312.31
2019-03-29T09:25:59.554Z,313.29
2019-03-29T09:26:59.563Z,313.40
2019-03-29T09:27:59.538Z,313.54
2019-03-29T09:28:59.515Z,313.79
2019-03-29T09:29:59.518Z,315.04
2019-03-29T09:30:59.481Z,313.24
2019-03-29T09:31:59.485Z,313.64
2019-03-29T09:32:59.482Z,312.50
2019-03-29T09:33:59.469Z,311.67
2019-03-29T09:34:59.462Z,312.59
2019-03-29T09:35:59.456Z,313.23
2019-03-29T09:37:00.352Z,312.14
2019-03-29T09:37:59.412Z,312.04
2019-03-29T09:38:59.430Z,313.02
2019-03-29T09:39:59.394Z,312.43
2019-03-29T09:40:59.488Z,313.15
2019-03-29T09:41:59.380Z,312.04
2019-03-29T09:43:07.253Z,312.40
2019-03-29T09:44:00.394Z,311.83
2019-03-29T09:44:59.340Z,311.68
2019-03-29T09:45:59.313Z,312.41
2019-03-29T09:46:59.319Z,312.84
2019-03-29T09:47:59.327Z,311.64
2019-03-29T09:48:59.298Z,312.84
2019-03-29T09:49:59.276Z,311.75
2019-03-29T09:50:59.277Z,311.68
2019-03-29T09:51:59.245Z,312.72
2019-03-29T09:53:01.268Z,312.33
2019-03-29T09:53:59.318Z,312.08
2019-03-29T09:54:59.237Z,312.66
2019-03-29T09:55:59.242Z,312.05
2019-03-29T09:56:59.200Z,312.47
2019-03-29T09:57:59.194Z,311.50
2019-03-29T09:58:59.180Z,314.14
2019-03-29T09:59:59.183Z,312.00
2019-03-29T10:00:59.162Z,313.56
2019-03-29T10:01:59.177Z,313.03
2019-03-29T10:02:59.129Z,311.94
2019-03-29T10:03:59.153Z,313.17
2019-03-29T10:04:59.109Z,312.98
2019-03-29T10:05:59.099Z,314.12
2019-03-29T10:06:59.093Z,312.38
2019-03-29T10:07:59.097Z,312.33
2019-03-29T10:08:59.088Z,313.05
2019-03-29T10:09:59.089Z,312.70
2019-03-29T10:10:59.080Z,314.77
2019-03-29T10:11:59.040Z,314.10
2019-03-29T10:12:59.031Z,313.78
2019-03-29T10:13:59.033Z,315.57
2019-03-29T10:14:59.018Z,313.10
2019-03-29T10:15:59.005Z,313.70
2019-03-29T10:16:59.585Z,315.52
2019-03-29T10:17:58.978Z,314.32
2019-03-29T10:18:58.994Z,314.77
2019-03-29T10:19:58.973Z,315.79
2019-03-29T10:20:58.952Z,314.62
2019-03-29T10:21:59.028Z,315.65
2019-03-29T10:22:58.915Z,316.00
2019-03-29T10:23:58.914Z,316.16
2019-03-29T10:25:01.844Z,315.87
2019-03-29T10:25:59.009Z,314.48
2019-03-29T10:26:58.875Z,314.85
2019-03-29T10:27:58.856Z,315.07
2019-03-29T10:28:58.845Z,314.37
2019-03-29T10:29:58.880Z,315.41
2019-03-29T10:30:58.838Z,314.56
2019-03-29T10:31:58.819Z,313.45
2019-03-29T10:32:58.812Z,314.39
2019-03-29T10:33:58.826Z,312.02
2019-03-29T10:34:58.772Z,313.71
2019-03-29T10:35:58.802Z,311.00
2019-03-29T10:36:58.772Z,311.43
2019-03-29T10:37:58.741Z,309.45
2019-03-29T10:38:58.743Z,311.55
2019-03-29T10:39:58.752Z,312.12
2019-03-29T10:40:58.720Z,312.10
2019-03-29T10:41:58.722Z,311.98
2019-03-29T10:42:58.719Z,311.67
2019-03-29T10:43:58.704Z,311.99
2019-03-29T10:44:58.707Z,309.88
2019-03-29T10:45:58.672Z,313.59
2019-03-29T10:46:58.679Z,311.25
2019-03-29T10:47:58.634Z,311.15
2019-03-29T10:48:58.622Z,312.39
2019-03-29T10:49:58.620Z,313.17
2019-03-29T10:50:58.629Z,313.30
2019-03-29T10:51:58.601Z,314.64
2019-03-29T10:52:58.610Z,309.90
2019-03-29T10:53:58.580Z,312.79
2019-03-29T10:54:58.556Z,311.95
2019-03-29T10:55:58.549Z,309.74
2019-03-29T10:56:58.558Z,313.08
2019-03-29T10:57:58.571Z,314.07
2019-03-29T10:58:58.553Z,310.31
2019-03-29T10:59:58.511Z,313.90
2019-03-29T11:00:59.474Z,311.36
2019-03-29T11:01:58.499Z,310.13
2019-03-29T11:02:58.473Z,312.11
2019-03-29T11:03:58.482Z,306.62
2019-03-29T11:04:58.462Z,310.18
2019-03-29T11:05:58.455Z,307.48
2019-03-29T11:06:58.453Z,310.41
2019-03-29T11:07:58.429Z,310.79
2019-03-29T11:08:58.436Z,309.64
2019-03-29T11:09:58.407Z,310.32
2019-03-29T11:10:58.391Z,308.19
2019-03-29T11:11:58.384Z,308.91
2019-03-29T11:13:11.890Z,312.50
2019-03-29T11:13:59.390Z,309.84
2019-03-29T11:14:58.348Z,308.39
2019-03-29T11:15:58.343Z,308.78
2019-03-29T11:16:58.332Z,308.52
2019-03-29T11:17:58.327Z,310.10
2019-03-29T11:18:58.291Z,313.57
2019-03-29T11:19:58.316Z,309.57
2019-03-29T11:20:58.276Z,312.39
2019-03-29T11:21:58.263Z,309.81
2019-03-29T11:22:58.273Z,307.17
2019-03-29T11:23:58.243Z,311.36
2019-03-29T11:24:58.248Z,312.89
2019-03-29T11:25:58.232Z,315.23
2019-03-29T11:26:58.197Z,311.70
2019-03-29T11:27:58.205Z,312.09
2019-03-29T11:28:58.188Z,312.96
2019-03-29T11:29:58.232Z,311.98
2019-03-29T11:30:58.169Z,307.24
2019-03-29T11:31:58.145Z,310.48
2019-03-29T11:32:58.156Z,306.70
2019-03-29T11:33:58.127Z,308.14
2019-03-29T11:34:58.134Z,311.16
2019-03-29T11:35:58.154Z,310.13
2019-03-29T11:36:58.097Z,314.28
2019-03-29T11:37:58.093Z,308.40
2019-03-29T11:38:58.080Z,309.59
2019-03-29T11:39:58.099Z,311.62
2019-03-29T11:40:58.051Z,311.50
2019-03-29T11:41:58.049Z,308.80
2019-03-29T11:42:58.039Z,310.23
2019-03-29T11:43:58.031Z,309.99
2019-03-29T11:44:58.005Z,310.09
2019-03-29T11:45:58.028Z,309.51
2019-03-29T11:46:57.991Z,312.95
2019-03-29T11:48:08.569Z,311.48
2019-03-29T11:48:58.988Z,310.62
2019-03-29T11:49:57.956Z,312.11
2019-03-29T11:50:57.967Z,311.66
2019-03-29T11:51:57.954Z,309.67
2019-03-29T11:52:57.917Z,313.19
2019-03-29T11:53:57.901Z,309.13
2019-03-29T11:54:57.903Z,310.39
2019-03-29T11:55:57.917Z,312.32
2019-03-29T11:56:57.902Z,309.05
2019-03-29T11:57:57.879Z,311.04
2019-03-29T11:58:57.859Z,312.55
2019-03-29T11:59:57.836Z,312.07
2019-03-29T12:00:57.845Z,312.63
2019-03-29T12:01:57.850Z,311.50
2019-03-29T12:02:57.801Z,311.40
2019-03-29T12:03:57.797Z,310.97
2019-03-29T12:04:57.781Z,309.96
2019-03-29T12:05:57.809Z,309.99
2019-03-29T12:06:57.808Z,310.36
2019-03-29T12:07:57.760Z,308.84
2019-03-29T12:08:57.760Z,308.93
2019-03-29T12:09:57.735Z,309.47
2019-03-29T12:10:57.730Z,306.98
2019-03-29T12:11:57.702Z,309.29
2019-03-29T12:12:57.708Z,310.56
2019-03-29T12:13:57.678Z,312.59
2019-03-29T12:14:57.685Z,312.38
2019-03-29T12:15:57.668Z,311.60
2019-03-29T12:16:57.669Z,312.93
2019-03-29T12:17:57.633Z,312.96
2019-03-29T12:18:57.643Z,310.97
2019-03-29T12:19:57.631Z,312.95
2019-03-29T12:20:57.629Z,314.12
2019-03-29T12:21:57.611Z,315.24
2019-03-29T12:22:57.596Z,313.46
2019-03-29T12:23:57.566Z,312.31
2019-03-29T12:24:57.578Z,313.20
2019-03-29T12:25:57.554Z,313.97
2019-03-29T12:26:57.540Z,314.87
2019-03-29T12:27:57.552Z,313.76